»·PEaware :: UAL5655 KSNA-KSFO

UAL5655 :: KSNA-KSFO

FLIGHT INFORMATION

Flight Status: Arrived
Operator:
United Airlines
More flights by this operator :: More flights under this callsign
Pilot: Skye D. (10623)
Aircraft: AIRBUS A319
(A319)
More flights by this aircraft type
Origin: KSNA John Wayne-Orange Co
United States
Destination: KSFO San Francisco Intl
United States
More flights between these airports :: More routes between these airports
Route: HHERO3 IKAYE RIZIN SPLNT STOKD SERFR SERFR3
File this flight plan on PilotEdge
Remarks:
Altitude:
(Current/Filed)
38,000ft
Speed:
(Current/Filed)
438kts
Departed: 29-Sep-18 01:20 PM
Arrived: 29-Sep-18 02:23 PM
Distance/Time
Traveled:
323nm/1:03
Distance/Time
To Go:
Arrived

Flight Plot

Page will automatically refresh every two minutes.

Flight plan parsing failed; only flown route is shown


Map Options




Map Legend


Flown Route
Filed Route
Departure Airport
Arrival Airport
Navaid (VOR, NDB)
Fix

Horizontal Profiles

Position Reports

Time Latitude Longitude Heading Altitude Ground
Speed
29-Sep-18 12:48 33.681839 -117.860697 117 42ft 0kts
29-Sep-18 12:49 33.681839 -117.860697 117 42ft 0kts
29-Sep-18 12:50 33.681839 -117.860697 117 42ft 0kts
29-Sep-18 12:51 33.681839 -117.860697 117 42ft 0kts
29-Sep-18 12:52 33.681839 -117.860697 117 42ft 0kts
29-Sep-18 12:53 33.681839 -117.860697 117 42ft 0kts
29-Sep-18 12:54 33.681839 -117.860697 117 42ft 0kts
29-Sep-18 12:55 33.681839 -117.860697 117 42ft 0kts
29-Sep-18 12:56 33.681839 -117.860697 117 42ft 0kts
29-Sep-18 12:57 33.681839 -117.860697 117 42ft 0kts
29-Sep-18 12:58 33.681839 -117.860697 117 42ft 0kts
29-Sep-18 12:59 33.681839 -117.860697 117 42ft 0kts
29-Sep-18 13:00 33.681839 -117.860697 117 42ft 0kts
29-Sep-18 13:01 33.681839 -117.860697 117 42ft 0kts
29-Sep-18 13:02 33.681839 -117.860697 117 42ft 0kts
29-Sep-18 13:03 33.681839 -117.860697 117 42ft 0kts
29-Sep-18 13:04 33.681839 -117.860697 117 42ft 0kts
29-Sep-18 13:05 33.681839 -117.860697 117 42ft 0kts
29-Sep-18 13:06 33.681839 -117.860697 117 42ft 0kts
29-Sep-18 13:07 33.681839 -117.860697 117 42ft 0kts
29-Sep-18 13:08 33.681839 -117.860697 117 42ft 0kts
29-Sep-18 13:09 33.681839 -117.860697 117 42ft 0kts
29-Sep-18 13:10 33.682182 -117.861156 151 42ft 2kts
29-Sep-18 13:11 33.682538 -117.861377 327 42ft 2kts
29-Sep-18 13:12 33.682677 -117.861489 202 42ft 0kts
29-Sep-18 13:13 33.682677 -117.861489 202 42ft 0kts
29-Sep-18 13:14 33.682677 -117.861489 202 42ft 0kts
29-Sep-18 13:15 33.682677 -117.861489 202 42ft 0kts
29-Sep-18 13:16 33.682403 -117.861365 171 42ft 2kts
29-Sep-18 13:17 33.681509 -117.861789 208 42ft 9kts
29-Sep-18 13:18 33.680605 -117.862991 296 45ft 3kts
29-Sep-18 13:19 33.680631 -117.863051 297 45ft 0kts
29-Sep-18 13:20 33.680868 -117.863597 298 45ft 7kts
29-Sep-18 13:21 33.681414 -117.864847 296 45ft 5kts
29-Sep-18 13:22 33.679595 -117.866372 208 49ft 77kts
29-Sep-18 13:23 33.641344 -117.891356 209 3589ft 168kts
29-Sep-18 13:24 33.596746 -117.897737 186 4982ft 247kts
29-Sep-18 13:25 33.536071 -117.940079 222 9271ft 271kts
29-Sep-18 13:26 33.481255 -118.004756 230 13257ft 300kts
29-Sep-18 13:27 33.432359 -118.100662 237 14879ft 380kts
29-Sep-18 13:28 33.425538 -118.231268 278 17112ft 424kts
29-Sep-18 13:29 33.467248 -118.365306 292 19368ft 445kts
29-Sep-18 13:30 33.528027 -118.496572 298 21271ft 461kts
29-Sep-18 13:31 33.605871 -118.620932 302 22896ft 474kts
29-Sep-18 13:32 33.697595 -118.733097 322 24328ft 497kts
29-Sep-18 13:33 33.819473 -118.809130 327 26439ft 493kts
29-Sep-18 13:34 33.939485 -118.883810 326 28571ft 486kts
29-Sep-18 13:35 34.056076 -118.956652 325 30682ft 479kts
29-Sep-18 13:36 34.154563 -119.047413 305 32619ft 455kts
29-Sep-18 13:37 34.223717 -119.166855 294 34425ft 440kts
29-Sep-18 13:38 34.286981 -119.290458 293 36176ft 434kts
29-Sep-18 13:39 34.348586 -119.411052 293 37653ft 432kts
29-Sep-18 13:40 34.406039 -119.518412 298 38000ft 437kts
29-Sep-18 13:41 34.475529 -119.613330 305 38003ft 446kts
29-Sep-18 13:42 34.550909 -119.705603 305 38003ft 446kts
29-Sep-18 13:43 34.626973 -119.799050 304 38003ft 446kts
29-Sep-18 13:44 34.707518 -119.898912 304 38003ft 446kts
29-Sep-18 13:45 34.789183 -120.000418 304 38003ft 447kts
29-Sep-18 13:46 34.869686 -120.100881 304 38004ft 447kts
29-Sep-18 13:47 34.948440 -120.199375 304 38016ft 447kts
29-Sep-18 13:48 35.025393 -120.295735 303 38021ft 447kts
29-Sep-18 13:49 35.102965 -120.389231 308 38022ft 454kts
29-Sep-18 13:50 35.195096 -120.481032 310 38021ft 456kts
29-Sep-18 13:51 35.284210 -120.569984 309 38016ft 457kts
29-Sep-18 13:52 35.372001 -120.658190 309 38017ft 457kts
29-Sep-18 13:53 35.462632 -120.748852 309 38014ft 456kts
29-Sep-18 13:54 35.551838 -120.838811 308 38003ft 456kts
29-Sep-18 13:55 35.643332 -120.931571 308 37998ft 456kts
29-Sep-18 13:56 35.735435 -121.025207 308 37997ft 456kts
29-Sep-18 13:57 35.828753 -121.120319 308 37996ft 456kts
29-Sep-18 13:58 35.920784 -121.214457 308 37996ft 456kts
29-Sep-18 13:59 36.012729 -121.308753 308 36050ft 458kts
29-Sep-18 14:00 36.109520 -121.398587 317 32877ft 470kts
29-Sep-18 14:01 36.216118 -121.481212 319 29191ft 471kts
29-Sep-18 14:02 36.320102 -121.562556 320 24761ft 481kts
29-Sep-18 14:03 36.418968 -121.639983 320 22098ft 439kts
29-Sep-18 14:04 36.507157 -121.708922 318 21581ft 384kts
29-Sep-18 14:05 36.593046 -121.777015 319 19664ft 370kts
29-Sep-18 14:06 36.677284 -121.843888 319 17881ft 356kts
29-Sep-18 14:07 36.762510 -121.901001 338 16081ft 359kts
29-Sep-18 14:08 36.855041 -121.926703 343 14336ft 353kts
29-Sep-18 14:09 36.940102 -121.950375 343 12761ft 344kts
29-Sep-18 14:10 37.019279 -121.979683 338 11259ft 333kts
29-Sep-18 14:11 37.096502 -122.010207 339 10054ft 309kts
29-Sep-18 14:12 37.165099 -122.036939 339 9303ft 289kts
29-Sep-18 14:13 37.233207 -122.063632 339 8103ft 283kts
29-Sep-18 14:14 37.280896 -122.082330 338 7940ft 280kts
29-Sep-18 14:15 37.328699 -122.101188 338 6902ft 274kts
29-Sep-18 14:16 37.383160 -122.122472 340 5713ft 267kts
29-Sep-18 14:17 37.438904 -122.141444 341 4252ft 259kts
29-Sep-18 14:18 37.492191 -122.159631 341 3431ft 203kts
29-Sep-18 14:19 37.538956 -122.185933 298 2917ft 185kts
29-Sep-18 14:20 37.561287 -122.237997 295 2073ft 171kts
29-Sep-18 14:21 37.578838 -122.279901 294 1351ft 153kts
29-Sep-18 14:22 37.592399 -122.312248 292 778ft 121kts
29-Sep-18 14:23 37.603998 -122.339426 293 408ft 123kts
29-Sep-18 14:24 37.613549 -122.362611 293 11ft 116kts
29-Sep-18 14:25 37.618711 -122.375357 288 23ft 36kts
29-Sep-18 14:26 37.618949 -122.380192 286 32ft 14kts
29-Sep-18 14:27 37.620320 -122.383611 298 32ft 23kts
29-Sep-18 14:28 37.619683 -122.385597 220 32ft 8kts
29-Sep-18 14:29 37.618923 -122.385945 171 32ft 0kts
29-Sep-18 14:30 37.618910 -122.385943 171 32ft 0kts
29-Sep-18 14:31 37.618910 -122.385943 171 32ft 0kts
29-Sep-18 14:32 37.618910 -122.385943 171 32ft 0kts

Navigation Log

Ident Type
Flight plan parsing failed, navigation log unavailable